createdAt,value
2023-01-05T00:01:52.802Z,102126.72
2023-01-05T00:06:49.309Z,102117.19
2023-01-05T00:12:04.192Z,102111.09
2023-01-05T00:17:19.936Z,102112.81
2023-01-05T00:22:34.156Z,102105.88
2023-01-05T00:27:31.043Z,102087.53
2023-01-05T00:32:28.428Z,102080.41
2023-01-05T00:37:25.669Z,102074.34
2023-01-05T00:42:23.218Z,102061.31
2023-01-05T00:47:19.764Z,102060.50
2023-01-05T00:52:17.126Z,102059.63
2023-01-05T00:57:14.207Z,102063.16
2023-01-05T01:02:11.423Z,102057.94
2023-01-05T01:07:08.296Z,102048.41
2023-01-05T01:12:05.647Z,102043.19
2023-01-05T01:17:02.253Z,102039.72
2023-01-05T01:21:58.902Z,102040.59
2023-01-05T01:26:56.060Z,102032.81
2023-01-05T01:31:53.811Z,102023.22
2023-01-05T01:36:50.418Z,102022.34
2023-01-05T01:41:52.093Z,102007.56
2023-01-05T01:46:48.702Z,102009.31
2023-01-05T01:51:47.813Z,102005.81
2023-01-05T01:56:49.449Z,102000.59
2023-01-05T02:01:48.965Z,101986.69
2023-01-05T02:06:46.368Z,101978.88
2023-01-05T02:11:46.650Z,101964.94
2023-01-05T02:16:57.149Z,101952.78
2023-01-05T02:22:01.171Z,101954.53
2023-01-05T02:27:09.162Z,101941.50
2023-01-05T02:32:12.985Z,101915.41
2023-01-05T02:37:13.919Z,101935.38
2023-01-05T02:42:15.135Z,101932.78
2023-01-05T02:47:27.733Z,101924.06
2023-01-05T02:52:27.372Z,101923.16
2023-01-05T02:57:46.362Z,101920.56
2023-01-05T03:02:49.278Z,101895.31
2023-01-05T03:07:47.831Z,101902.34
2023-01-05T03:13:04.049Z,101887.53
2023-01-05T03:18:04.256Z,101866.72
2023-01-05T03:23:21.911Z,101863.28
2023-01-05T03:28:39.067Z,101868.47
2023-01-05T03:34:01.470Z,101856.31
2023-01-05T03:39:01.408Z,101847.63
2023-01-05T03:44:00.231Z,101844.16
2023-01-05T03:49:00.965Z,101824.16
2023-01-05T03:53:58.040Z,101848.47
2023-01-05T03:58:55.553Z,101835.38
2023-01-05T04:03:53.078Z,101807.59
2023-01-05T04:08:49.940Z,101830.16
2023-01-05T04:13:48.117Z,101820.66
2023-01-05T04:18:46.184Z,101825.00
2023-01-05T04:23:46.557Z,101816.19
2023-01-05T04:28:44.815Z,101811.88
2023-01-05T04:33:44.763Z,101808.41
2023-01-05T04:38:46.813Z,101805.75
2023-01-05T04:43:43.825Z,101803.88
2023-01-05T04:48:42.419Z,101800.59
2023-01-05T04:53:39.180Z,101780.59
2023-01-05T04:58:39.420Z,101784.00
2023-01-05T05:03:37.547Z,101778.78
2023-01-05T05:08:38.401Z,101775.28
2023-01-05T05:13:35.264Z,101745.69
2023-01-05T05:18:33.459Z,101750.88
2023-01-05T05:23:30.975Z,101743.00
2023-01-05T05:28:29.132Z,101739.59
2023-01-05T05:33:26.176Z,101743.84
2023-01-05T05:38:23.496Z,101736.00
2023-01-05T05:43:20.045Z,101734.25
2023-01-05T05:48:16.701Z,101729.94
2023-01-05T05:53:13.398Z,101707.31
2023-01-05T05:58:10.810Z,101694.28
2023-01-05T06:03:07.410Z,101674.44
2023-01-05T06:08:04.286Z,101677.91
2023-01-05T06:13:01.001Z,101672.63
2023-01-05T06:17:58.221Z,101673.41
2023-01-05T06:22:54.927Z,101667.25
2023-01-05T06:27:54.443Z,101671.59
2023-01-05T06:32:51.108Z,101671.53
2023-01-05T06:37:48.510Z,101659.31
2023-01-05T06:42:45.071Z,101647.38
2023-01-05T06:47:41.925Z,101645.81
2023-01-05T06:52:39.556Z,101635.38
2023-01-05T06:57:36.904Z,101635.19
2023-01-05T07:02:33.819Z,101648.25
2023-01-05T07:07:30.312Z,101643.00
2023-01-05T07:12:26.902Z,101628.06
2023-01-05T07:17:24.410Z,101631.63
2023-01-05T07:22:21.295Z,101631.44
2023-01-05T07:27:17.949Z,101624.25
2023-01-05T07:32:14.592Z,101612.88
2023-01-05T07:37:23.875Z,101601.44
2023-01-05T07:42:27.351Z,101603.25
2023-01-05T07:47:30.294Z,101596.97
2023-01-05T07:52:32.939Z,101590.44
2023-01-05T07:57:36.985Z,101583.19
2023-01-05T08:02:49.978Z,101582.38
2023-01-05T08:08:09.142Z,101592.69
2023-01-05T08:13:49.527Z,101583.91
2023-01-05T08:19:11.021Z,101574.03
2023-01-05T08:24:16.087Z,101559.09
2023-01-05T08:29:29.974Z,101558.22
2023-01-05T08:34:46.193Z,101560.59
2023-01-05T08:40:19.676Z,101563.00
2023-01-05T08:45:49.451Z,101557.13
2023-01-05T08:50:48.171Z,101531.19
2023-01-05T08:55:49.831Z,101520.41
2023-01-05T09:00:59.882Z,101531.59
2023-01-05T09:06:02.706Z,101521.00
2023-01-05T09:11:06.167Z,101508.09
2023-01-05T09:16:07.224Z,101495.63
2023-01-05T09:21:05.505Z,101487.13
2023-01-05T09:26:03.475Z,101470.97
2023-01-05T09:31:05.739Z,101460.84
2023-01-05T09:36:02.559Z,101430.94
2023-01-05T09:41:03.665Z,101430.34
2023-01-05T09:46:03.069Z,101419.31
2023-01-05T09:50:59.670Z,101408.78
2023-01-05T09:55:57.546Z,101399.69
2023-01-05T10:01:04.496Z,101380.53
2023-01-05T10:06:01.612Z,101360.97
2023-01-05T10:11:20.895Z,101355.41
2023-01-05T10:16:18.396Z,101331.72
2023-01-05T10:21:20.967Z,101326.94
2023-01-05T10:26:21.456Z,101315.22
2023-01-05T10:31:23.342Z,101297.53
2023-01-05T10:37:06.187Z,101286.03
2023-01-05T10:41:48.066Z,101265.09
2023-01-05T10:46:52.414Z,101260.81
2023-01-05T10:51:56.293Z,101265.09
2023-01-05T10:56:53.498Z,101258.16
2023-01-05T11:01:50.874Z,101259.78
2023-01-05T11:06:47.665Z,101260.16
2023-01-05T11:11:52.374Z,101237.28
2023-01-05T11:16:50.540Z,101231.16
2023-01-05T11:21:48.281Z,101226.88
2023-01-05T11:26:48.103Z,101198.63
2023-01-05T11:31:47.444Z,101249.38
2023-01-05T11:37:49.535Z,101275.03
2023-01-05T11:42:46.879Z,101283.19
2023-01-05T11:47:44.951Z,101250.59
2023-01-05T11:52:46.840Z,101219.78
2023-01-05T11:57:43.647Z,101207.72
2023-01-05T12:03:01.779Z,101206.34
2023-01-05T12:07:59.912Z,101196.13
2023-01-05T12:13:00.774Z,101181.31
2023-01-05T12:18:10.830Z,101163.66
2023-01-05T12:23:13.310Z,101165.03
2023-01-05T12:28:39.733Z,101170.13
2023-01-05T12:34:04.976Z,101168.16
2023-01-05T12:39:09.611Z,101165.50
2023-01-05T12:44:14.629Z,101150.81
2023-01-05T12:49:15.144Z,101126.22
2023-01-05T12:54:17.742Z,101121.91
2023-01-05T12:59:17.138Z,101110.84
2023-01-05T13:04:27.427Z,101107.53
2023-01-05T13:09:30.339Z,101113.47
2023-01-05T13:20:36.145Z,101109.56
2023-01-05T13:25:35.749Z,101096.59
2023-01-05T13:30:45.266Z,101092.16
2023-01-05T13:35:53.630Z,101091.97
2023-01-05T13:40:56.389Z,101087.69
2023-01-05T13:46:02.559Z,101085.72
2023-01-05T13:51:12.424Z,101071.38
2023-01-05T13:56:14.663Z,101090.66
2023-01-05T14:01:17.242Z,101093.28
2023-01-05T14:06:19.670Z,101090.78
2023-01-05T14:11:17.794Z,101089.41
2023-01-05T14:16:47.774Z,101081.81
2023-01-05T14:21:59.817Z,101059.91
2023-01-05T14:27:01.095Z,101046.06
2023-01-05T14:32:05.533Z,101044.03
2023-01-05T14:37:04.993Z,101040.91
2023-01-05T14:42:04.225Z,101013.22
2023-01-05T14:47:01.581Z,101002.38
2023-01-05T14:51:59.255Z,101000.06
2023-01-05T14:57:10.786Z,100986.22
2023-01-05T15:02:16.906Z,101008.59
2023-01-05T15:07:20.993Z,100997.00
2023-01-05T15:12:32.466Z,101012.66
2023-01-05T15:17:44.622Z,100999.72
2023-01-05T15:22:55.356Z,100992.97
2023-01-05T15:27:56.277Z,100998.22
2023-01-05T15:33:00.149Z,101001.09
2023-01-05T15:37:57.043Z,100994.66
2023-01-05T15:42:55.533Z,101000.41
2023-01-05T15:47:52.841Z,100996.84
2023-01-05T15:52:54.099Z,100986.53
2023-01-05T15:57:52.407Z,100977.53
2023-01-05T16:02:49.137Z,100958.69
2023-01-05T16:07:48.182Z,100985.50
2023-01-05T16:12:46.443Z,100968.88
2023-01-05T16:17:43.127Z,100989.78
2023-01-05T16:22:43.056Z,100992.22
2023-01-05T16:27:40.488Z,100989.44
2023-01-05T16:32:38.618Z,100979.38
2023-01-05T16:37:35.272Z,100977.28
2023-01-05T16:42:34.879Z,100968.09
2023-01-05T16:47:33.383Z,101004.81
2023-01-05T16:52:39.056Z,101015.63
2023-01-05T16:57:43.116Z,101024.63
2023-01-05T17:02:43.308Z,101028.63
2023-01-05T17:07:42.683Z,101024.91
2023-01-05T17:12:39.496Z,101025.34
2023-01-05T17:17:36.080Z,101021.06
2023-01-05T17:22:32.609Z,101030.06
2023-01-05T17:27:29.870Z,101026.28
2023-01-05T17:32:26.463Z,101019.91
2023-01-05T17:37:23.122Z,101016.78
2023-01-05T17:42:37.654Z,101017.81
2023-01-05T17:52:32.368Z,101011.03
2023-01-05T17:57:29.108Z,101016.38
2023-01-05T18:02:25.970Z,101012.59
2023-01-05T18:07:23.324Z,101022.69
2023-01-05T18:12:19.941Z,101022.41
2023-01-05T18:17:16.693Z,101013.00
2023-01-05T18:22:13.731Z,101010.22
2023-01-05T18:27:11.583Z,100998.75
2023-01-05T18:32:11.725Z,100996.25
2023-01-05T18:37:15.703Z,100993.47
2023-01-05T18:42:18.223Z,100985.75
2023-01-05T18:47:14.992Z,101023.50
2023-01-05T18:52:11.740Z,101016.69
2023-01-05T18:57:08.463Z,101016.72
2023-01-05T19:02:06.277Z,101008.59
2023-01-05T19:07:02.979Z,101002.72
2023-01-05T19:11:59.467Z,101008.19
2023-01-05T19:16:56.047Z,101006.69
2023-01-05T19:21:54.728Z,101000.84
2023-01-05T19:26:51.717Z,101001.84
2023-01-05T19:31:48.673Z,101006.06
2023-01-05T19:36:45.683Z,101017.59
2023-01-05T19:41:46.491Z,101014.78
2023-01-05T19:46:43.824Z,101010.50
2023-01-05T19:51:40.371Z,101014.69
2023-01-05T19:56:37.758Z,101013.91
2023-01-05T20:01:35.805Z,101019.41
2023-01-05T20:06:33.532Z,101033.13
2023-01-05T20:11:39.156Z,101033.84
2023-01-05T20:16:36.959Z,101025.56
2023-01-05T20:21:33.592Z,101039.69
2023-01-05T20:26:30.813Z,101030.88
2023-01-05T20:31:29.003Z,101046.97
2023-01-05T20:36:26.961Z,101013.31
2023-01-05T20:41:24.564Z,101028.00
2023-01-05T20:46:22.237Z,101029.59
2023-01-05T20:51:20.580Z,101037.78
2023-01-05T20:56:18.626Z,101017.69
2023-01-05T21:01:15.348Z,101027.66
2023-01-05T21:06:13.862Z,101033.16
2023-01-05T21:11:15.180Z,101018.84
2023-01-05T21:16:15.204Z,101023.22
2023-01-05T21:21:13.458Z,101020.41
2023-01-05T21:26:10.919Z,101012.22
2023-01-05T21:31:11.709Z,101015.75
2023-01-05T21:36:13.026Z,101020.03
2023-01-05T21:41:10.475Z,101009.31
2023-01-05T21:46:08.273Z,101049.88
2023-01-05T21:51:23.424Z,101056.63
2023-01-05T21:56:27.602Z,101060.66
2023-01-05T22:01:24.817Z,101070.13
2023-01-05T22:06:21.575Z,101066.81
2023-01-05T22:11:18.182Z,101063.66
2023-01-05T22:16:15.531Z,101053.06
2023-01-05T22:21:14.304Z,101055.06
2023-01-05T22:26:12.556Z,101055.59
2023-01-05T22:31:10.122Z,101062.44
2023-01-05T22:36:07.806Z,101046.94
2023-01-05T22:41:04.983Z,101057.63
2023-01-05T22:46:02.313Z,101062.84
2023-01-05T22:51:02.128Z,101054.00
2023-01-05T22:55:59.739Z,101046.41
2023-01-05T23:01:07.589Z,101058.69
2023-01-05T23:06:04.704Z,101071.00
2023-01-05T23:11:02.788Z,101062.81
2023-01-05T23:15:59.452Z,101068.34
2023-01-05T23:20:56.941Z,101078.56
2023-01-05T23:25:54.155Z,101099.19
2023-01-05T23:30:52.049Z,101099.22
2023-01-05T23:35:50.127Z,101106.34
2023-01-05T23:40:47.803Z,101102.50
2023-01-05T23:45:44.632Z,101100.88
2023-01-05T23:50:42.500Z,101099.44
2023-01-05T23:55:39.610Z,101065.22
